sensor_id;sensor_type;location;lat;lon;timestamp;P1;durP1;ratioP1;P2;durP2;ratioP2
4486;SDS011;2256;48.740;9.106;2023-06-26T00:01:18;9.27;;;5.90;;
4486;SDS011;2256;48.740;9.106;2023-06-26T00:03:58;11.13;;;6.10;;
4486;SDS011;2256;48.740;9.106;2023-06-26T00:06:25;13.90;;;6.83;;
4486;SDS011;2256;48.740;9.106;2023-06-26T00:08:58;14.00;;;7.27;;
4486;SDS011;2256;48.740;9.106;2023-06-26T00:11:30;11.57;;;6.30;;
4486;SDS011;2256;48.740;9.106;2023-06-26T00:13:58;12.73;;;6.80;;
4486;SDS011;2256;48.740;9.106;2023-06-26T00:16:25;11.33;;;6.20;;
4486;SDS011;2256;48.740;9.106;2023-06-26T00:18:52;12.53;;;6.30;;
4486;SDS011;2256;48.740;9.106;2023-06-26T00:21:20;13.47;;;6.77;;
4486;SDS011;2256;48.740;9.106;2023-06-26T00:23:47;13.80;;;6.37;;
4486;SDS011;2256;48.740;9.106;2023-06-26T00:26:14;11.77;;;6.10;;
4486;SDS011;2256;48.740;9.106;2023-06-26T00:28:42;9.17;;;5.80;;
4486;SDS011;2256;48.740;9.106;2023-06-26T00:31:09;13.67;;;6.63;;
4486;SDS011;2256;48.740;9.106;2023-06-26T00:33:42;11.20;;;6.60;;
4486;SDS011;2256;48.740;9.106;2023-06-26T00:36:09;12.90;;;6.27;;
4486;SDS011;2256;48.740;9.106;2023-06-26T00:38:37;10.47;;;5.70;;
4486;SDS011;2256;48.740;9.106;2023-06-26T00:41:04;11.33;;;6.27;;
4486;SDS011;2256;48.740;9.106;2023-06-26T00:43:37;12.03;;;6.67;;
4486;SDS011;2256;48.740;9.106;2023-06-26T00:46:09;12.70;;;6.50;;
4486;SDS011;2256;48.740;9.106;2023-06-26T00:48:38;10.57;;;6.40;;
4486;SDS011;2256;48.740;9.106;2023-06-26T00:51:08;13.13;;;5.70;;
4486;SDS011;2256;48.740;9.106;2023-06-26T00:53:36;12.10;;;5.53;;
4486;SDS011;2256;48.740;9.106;2023-06-26T00:56:03;10.57;;;5.97;;
4486;SDS011;2256;48.740;9.106;2023-06-26T00:58:33;11.33;;;6.13;;
4486;SDS011;2256;48.740;9.106;2023-06-26T01:01:00;11.30;;;6.50;;
4486;SDS011;2256;48.740;9.106;2023-06-26T01:03:29;8.27;;;5.13;;
4486;SDS011;2256;48.740;9.106;2023-06-26T01:05:57;11.00;;;6.57;;
4486;SDS011;2256;48.740;9.106;2023-06-26T01:08:25;12.77;;;6.03;;
4486;SDS011;2256;48.740;9.106;2023-06-26T01:10:53;13.90;;;6.80;;
4486;SDS011;2256;48.740;9.106;2023-06-26T01:13:21;9.37;;;5.60;;
4486;SDS011;2256;48.740;9.106;2023-06-26T01:15:49;10.37;;;6.50;;
4486;SDS011;2256;48.740;9.106;2023-06-26T01:18:17;11.63;;;5.90;;
4486;SDS011;2256;48.740;9.106;2023-06-26T01:20:46;10.83;;;5.80;;
4486;SDS011;2256;48.740;9.106;2023-06-26T01:23:14;10.20;;;5.57;;
4486;SDS011;2256;48.740;9.106;2023-06-26T01:25:51;12.73;;;6.30;;
4486;SDS011;2256;48.740;9.106;2023-06-26T01:28:29;10.03;;;5.27;;
4486;SDS011;2256;48.740;9.106;2023-06-26T01:30:59;9.87;;;5.97;;
4486;SDS011;2256;48.740;9.106;2023-06-26T01:36:28;9.47;;;5.57;;
4486;SDS011;2256;48.740;9.106;2023-06-26T01:39:15;9.73;;;5.50;;
4486;SDS011;2256;48.740;9.106;2023-06-26T01:42:03;10.47;;;5.30;;
4486;SDS011;2256;48.740;9.106;2023-06-26T01:48:06;11.47;;;5.83;;
4486;SDS011;2256;48.740;9.106;2023-06-26T01:50:41;10.60;;;5.67;;
4486;SDS011;2256;48.740;9.106;2023-06-26T01:53:10;11.33;;;6.63;;
4486;SDS011;2256;48.740;9.106;2023-06-26T01:55:42;9.83;;;5.57;;
4486;SDS011;2256;48.740;9.106;2023-06-26T01:58:24;10.97;;;6.10;;
4486;SDS011;2256;48.740;9.106;2023-06-26T02:00:54;10.10;;;5.53;;
4486;SDS011;2256;48.740;9.106;2023-06-26T02:03:21;8.43;;;5.00;;
4486;SDS011;2256;48.740;9.106;2023-06-26T02:05:49;10.67;;;6.27;;
4486;SDS011;2256;48.740;9.106;2023-06-26T02:08:16;9.10;;;5.40;;
4486;SDS011;2256;48.740;9.106;2023-06-26T02:10:43;10.53;;;5.57;;
4486;SDS011;2256;48.740;9.106;2023-06-26T02:13:11;9.47;;;5.70;;
4486;SDS011;2256;48.740;9.106;2023-06-26T02:15:39;11.27;;;6.07;;
4486;SDS011;2256;48.740;9.106;2023-06-26T02:18:07;11.00;;;6.77;;
4486;SDS011;2256;48.740;9.106;2023-06-26T02:20:35;10.23;;;6.13;;
4486;SDS011;2256;48.740;9.106;2023-06-26T02:23:08;8.87;;;5.53;;
4486;SDS011;2256;48.740;9.106;2023-06-26T02:25:42;10.50;;;6.27;;
4486;SDS011;2256;48.740;9.106;2023-06-26T02:37:25;10.23;;;6.10;;
4486;SDS011;2256;48.740;9.106;2023-06-26T02:40:31;13.93;;;6.83;;
4486;SDS011;2256;48.740;9.106;2023-06-26T02:43:26;8.83;;;5.80;;
4486;SDS011;2256;48.740;9.106;2023-06-26T02:46:06;7.10;;;4.87;;
4486;SDS011;2256;48.740;9.106;2023-06-26T02:48:56;11.40;;;6.30;;
4486;SDS011;2256;48.740;9.106;2023-06-26T02:51:28;11.80;;;6.60;;
4486;SDS011;2256;48.740;9.106;2023-06-26T02:54:04;10.07;;;5.60;;
4486;SDS011;2256;48.740;9.106;2023-06-26T02:56:33;12.57;;;5.97;;
4486;SDS011;2256;48.740;9.106;2023-06-26T02:59:05;13.40;;;5.87;;
4486;SDS011;2256;48.740;9.106;2023-06-26T03:01:32;11.60;;;6.10;;
4486;SDS011;2256;48.740;9.106;2023-06-26T03:04:00;10.37;;;6.03;;
4486;SDS011;2256;48.740;9.106;2023-06-26T03:06:27;9.13;;;6.37;;
4486;SDS011;2256;48.740;9.106;2023-06-26T03:08:54;10.60;;;5.90;;
4486;SDS011;2256;48.740;9.106;2023-06-26T03:11:23;10.10;;;5.87;;
4486;SDS011;2256;48.740;9.106;2023-06-26T03:13:51;8.90;;;5.63;;
4486;SDS011;2256;48.740;9.106;2023-06-26T03:16:18;11.77;;;6.80;;
4486;SDS011;2256;48.740;9.106;2023-06-26T03:18:44;11.00;;;6.20;;
4486;SDS011;2256;48.740;9.106;2023-06-26T03:21:11;17.20;;;5.83;;
4486;SDS011;2256;48.740;9.106;2023-06-26T03:23:38;12.17;;;6.03;;
4486;SDS011;2256;48.740;9.106;2023-06-26T03:26:05;11.47;;;6.00;;
4486;SDS011;2256;48.740;9.106;2023-06-26T03:28:34;12.90;;;7.00;;
4486;SDS011;2256;48.740;9.106;2023-06-26T03:31:01;12.23;;;5.80;;
4486;SDS011;2256;48.740;9.106;2023-06-26T03:33:28;10.57;;;5.47;;
4486;SDS011;2256;48.740;9.106;2023-06-26T03:35:55;13.00;;;6.83;;
4486;SDS011;2256;48.740;9.106;2023-06-26T03:38:21;9.03;;;5.97;;
4486;SDS011;2256;48.740;9.106;2023-06-26T03:40:49;12.23;;;6.70;;
4486;SDS011;2256;48.740;9.106;2023-06-26T03:43:15;11.33;;;6.43;;
4486;SDS011;2256;48.740;9.106;2023-06-26T03:45:46;14.37;;;6.97;;
4486;SDS011;2256;48.740;9.106;2023-06-26T03:48:13;9.43;;;5.40;;
4486;SDS011;2256;48.740;9.106;2023-06-26T03:50:39;11.30;;;5.70;;
4486;SDS011;2256;48.740;9.106;2023-06-26T03:53:07;13.37;;;6.57;;
4486;SDS011;2256;48.740;9.106;2023-06-26T03:55:33;11.70;;;6.60;;
4486;SDS011;2256;48.740;9.106;2023-06-26T03:58:00;9.70;;;5.60;;
4486;SDS011;2256;48.740;9.106;2023-06-26T04:00:27;10.37;;;5.73;;
4486;SDS011;2256;48.740;9.106;2023-06-26T04:02:56;11.30;;;6.00;;
4486;SDS011;2256;48.740;9.106;2023-06-26T04:05:23;9.90;;;5.70;;
4486;SDS011;2256;48.740;9.106;2023-06-26T04:07:50;13.77;;;6.77;;
4486;SDS011;2256;48.740;9.106;2023-06-26T04:10:18;12.07;;;5.77;;
4486;SDS011;2256;48.740;9.106;2023-06-26T04:12:46;10.03;;;5.50;;
4486;SDS011;2256;48.740;9.106;2023-06-26T04:15:13;10.10;;;5.57;;
4486;SDS011;2256;48.740;9.106;2023-06-26T04:17:40;8.93;;;5.20;;
4486;SDS011;2256;48.740;9.106;2023-06-26T04:20:08;7.87;;;5.13;;
4486;SDS011;2256;48.740;9.106;2023-06-26T04:22:37;11.50;;;5.20;;
4486;SDS011;2256;48.740;9.106;2023-06-26T04:25:04;12.00;;;5.70;;
4486;SDS011;2256;48.740;9.106;2023-06-26T04:27:31;13.27;;;6.30;;
4486;SDS011;2256;48.740;9.106;2023-06-26T04:29:59;10.40;;;5.57;;
4486;SDS011;2256;48.740;9.106;2023-06-26T04:32:26;8.73;;;5.30;;
4486;SDS011;2256;48.740;9.106;2023-06-26T04:34:53;12.27;;;6.70;;
4486;SDS011;2256;48.740;9.106;2023-06-26T04:37:21;8.37;;;5.50;;
4486;SDS011;2256;48.740;9.106;2023-06-26T04:39:49;13.60;;;5.03;;
4486;SDS011;2256;48.740;9.106;2023-06-26T04:42:19;7.83;;;5.00;;
4486;SDS011;2256;48.740;9.106;2023-06-26T04:44:46;12.27;;;5.90;;
4486;SDS011;2256;48.740;9.106;2023-06-26T04:47:13;17.37;;;6.10;;
4486;SDS011;2256;48.740;9.106;2023-06-26T04:49:40;8.23;;;5.50;;
4486;SDS011;2256;48.740;9.106;2023-06-26T04:52:10;7.73;;;5.40;;
4486;SDS011;2256;48.740;9.106;2023-06-26T04:54:39;8.73;;;5.13;;
4486;SDS011;2256;48.740;9.106;2023-06-26T04:57:06;7.77;;;5.17;;
4486;SDS011;2256;48.740;9.106;2023-06-26T04:59:34;10.97;;;5.63;;
4486;SDS011;2256;48.740;9.106;2023-06-26T05:02:01;10.20;;;6.17;;
4486;SDS011;2256;48.740;9.106;2023-06-26T05:04:30;8.73;;;5.50;;
4486;SDS011;2256;48.740;9.106;2023-06-26T05:06:57;7.47;;;5.43;;
4486;SDS011;2256;48.740;9.106;2023-06-26T05:09:24;9.80;;;4.87;;
4486;SDS011;2256;48.740;9.106;2023-06-26T05:11:52;8.97;;;5.87;;
4486;SDS011;2256;48.740;9.106;2023-06-26T05:14:19;15.00;;;6.20;;
4486;SDS011;2256;48.740;9.106;2023-06-26T05:16:46;8.90;;;5.47;;
4486;SDS011;2256;48.740;9.106;2023-06-26T05:19:13;10.00;;;5.93;;
4486;SDS011;2256;48.740;9.106;2023-06-26T05:21:39;9.60;;;5.70;;
4486;SDS011;2256;48.740;9.106;2023-06-26T05:24:07;8.90;;;5.27;;
4486;SDS011;2256;48.740;9.106;2023-06-26T05:26:35;8.43;;;5.63;;
4486;SDS011;2256;48.740;9.106;2023-06-26T05:29:04;9.87;;;5.20;;
4486;SDS011;2256;48.740;9.106;2023-06-26T05:31:31;8.57;;;5.00;;
4486;SDS011;2256;48.740;9.106;2023-06-26T05:34:00;9.40;;;5.07;;
4486;SDS011;2256;48.740;9.106;2023-06-26T05:36:29;8.63;;;4.83;;
4486;SDS011;2256;48.740;9.106;2023-06-26T05:38:59;9.30;;;5.20;;
4486;SDS011;2256;48.740;9.106;2023-06-26T05:41:27;9.33;;;5.00;;
4486;SDS011;2256;48.740;9.106;2023-06-26T05:43:54;10.10;;;5.87;;
4486;SDS011;2256;48.740;9.106;2023-06-26T05:46:22;12.90;;;5.47;;
4486;SDS011;2256;48.740;9.106;2023-06-26T05:48:49;6.63;;;4.70;;
4486;SDS011;2256;48.740;9.106;2023-06-26T05:51:16;9.53;;;5.33;;
4486;SDS011;2256;48.740;9.106;2023-06-26T05:53:43;7.83;;;5.40;;
4486;SDS011;2256;48.740;9.106;2023-06-26T05:56:11;8.37;;;5.30;;
4486;SDS011;2256;48.740;9.106;2023-06-26T05:58:38;9.60;;;5.43;;
4486;SDS011;2256;48.740;9.106;2023-06-26T06:01:06;8.27;;;4.73;;
4486;SDS011;2256;48.740;9.106;2023-06-26T06:03:34;11.17;;;5.27;;
4486;SDS011;2256;48.740;9.106;2023-06-26T06:06:01;9.10;;;5.30;;
4486;SDS011;2256;48.740;9.106;2023-06-26T06:08:27;9.90;;;5.47;;
4486;SDS011;2256;48.740;9.106;2023-06-26T06:10:54;7.80;;;4.83;;
4486;SDS011;2256;48.740;9.106;2023-06-26T06:13:21;7.93;;;5.40;;
4486;SDS011;2256;48.740;9.106;2023-06-26T06:15:48;8.80;;;5.10;;
4486;SDS011;2256;48.740;9.106;2023-06-26T06:18:15;11.20;;;4.83;;
4486;SDS011;2256;48.740;9.106;2023-06-26T06:20:44;9.37;;;5.27;;
4486;SDS011;2256;48.740;9.106;2023-06-26T06:23:10;10.37;;;5.20;;
4486;SDS011;2256;48.740;9.106;2023-06-26T06:25:37;9.10;;;5.13;;
4486;SDS011;2256;48.740;9.106;2023-06-26T06:28:04;7.57;;;5.03;;
4486;SDS011;2256;48.740;9.106;2023-06-26T06:30:31;9.50;;;5.33;;
4486;SDS011;2256;48.740;9.106;2023-06-26T06:32:58;9.10;;;5.57;;
4486;SDS011;2256;48.740;9.106;2023-06-26T06:35:25;5.93;;;4.33;;
4486;SDS011;2256;48.740;9.106;2023-06-26T06:37:53;7.67;;;4.97;;
4486;SDS011;2256;48.740;9.106;2023-06-26T06:40:20;8.53;;;4.90;;
4486;SDS011;2256;48.740;9.106;2023-06-26T06:42:47;11.23;;;5.43;;
4486;SDS011;2256;48.740;9.106;2023-06-26T06:45:14;7.13;;;4.67;;
4486;SDS011;2256;48.740;9.106;2023-06-26T06:47:41;13.70;;;5.63;;
4486;SDS011;2256;48.740;9.106;2023-06-26T06:50:08;7.87;;;5.63;;
4486;SDS011;2256;48.740;9.106;2023-06-26T06:52:35;5.23;;;3.93;;
4486;SDS011;2256;48.740;9.106;2023-06-26T06:55:05;5.63;;;4.73;;
4486;SDS011;2256;48.740;9.106;2023-06-26T06:57:34;10.33;;;4.50;;
4486;SDS011;2256;48.740;9.106;2023-06-26T07:00:03;5.50;;;4.67;;
4486;SDS011;2256;48.740;9.106;2023-06-26T07:02:33;7.07;;;5.17;;
4486;SDS011;2256;48.740;9.106;2023-06-26T07:05:00;6.30;;;4.60;;
4486;SDS011;2256;48.740;9.106;2023-06-26T07:07:28;4.73;;;4.27;;
4486;SDS011;2256;48.740;9.106;2023-06-26T07:09:58;6.00;;;4.30;;
4486;SDS011;2256;48.740;9.106;2023-06-26T07:12:26;5.70;;;4.17;;
4486;SDS011;2256;48.740;9.106;2023-06-26T07:14:56;7.87;;;4.50;;
4486;SDS011;2256;48.740;9.106;2023-06-26T07:17:23;4.97;;;4.13;;
4486;SDS011;2256;48.740;9.106;2023-06-26T07:19:50;6.47;;;4.63;;
4486;SDS011;2256;48.740;9.106;2023-06-26T07:22:17;6.40;;;5.20;;
4486;SDS011;2256;48.740;9.106;2023-06-26T07:24:45;6.10;;;4.80;;
4486;SDS011;2256;48.740;9.106;2023-06-26T07:27:12;5.90;;;4.70;;
4486;SDS011;2256;48.740;9.106;2023-06-26T07:29:40;8.10;;;4.17;;
4486;SDS011;2256;48.740;9.106;2023-06-26T07:32:07;5.90;;;4.53;;
4486;SDS011;2256;48.740;9.106;2023-06-26T07:34:34;5.20;;;3.90;;
4486;SDS011;2256;48.740;9.106;2023-06-26T07:37:01;8.80;;;4.90;;
4486;SDS011;2256;48.740;9.106;2023-06-26T07:39:28;5.17;;;4.47;;
4486;SDS011;2256;48.740;9.106;2023-06-26T07:41:55;4.37;;;3.97;;
4486;SDS011;2256;48.740;9.106;2023-06-26T07:44:23;6.20;;;4.50;;
4486;SDS011;2256;48.740;9.106;2023-06-26T07:46:51;6.03;;;4.40;;
4486;SDS011;2256;48.740;9.106;2023-06-26T07:49:18;6.37;;;4.40;;
4486;SDS011;2256;48.740;9.106;2023-06-26T07:51:45;4.80;;;3.87;;
4486;SDS011;2256;48.740;9.106;2023-06-26T07:54:12;5.23;;;4.50;;
4486;SDS011;2256;48.740;9.106;2023-06-26T07:56:51;4.67;;;3.90;;
4486;SDS011;2256;48.740;9.106;2023-06-26T07:59:19;4.40;;;3.67;;
4486;SDS011;2256;48.740;9.106;2023-06-26T08:01:47;4.47;;;3.43;;
4486;SDS011;2256;48.740;9.106;2023-06-26T08:04:15;5.33;;;3.60;;
4486;SDS011;2256;48.740;9.106;2023-06-26T08:06:42;4.63;;;3.60;;
4486;SDS011;2256;48.740;9.106;2023-06-26T08:09:09;8.67;;;3.70;;
4486;SDS011;2256;48.740;9.106;2023-06-26T08:11:37;4.40;;;3.73;;
4486;SDS011;2256;48.740;9.106;2023-06-26T08:14:04;4.07;;;3.67;;
4486;SDS011;2256;48.740;9.106;2023-06-26T08:16:32;4.50;;;3.40;;
4486;SDS011;2256;48.740;9.106;2023-06-26T08:18:59;4.20;;;3.80;;
4486;SDS011;2256;48.740;9.106;2023-06-26T08:21:28;5.07;;;4.00;;
4486;SDS011;2256;48.740;9.106;2023-06-26T08:23:55;7.13;;;4.17;;
4486;SDS011;2256;48.740;9.106;2023-06-26T08:26:21;10.20;;;3.63;;
4486;SDS011;2256;48.740;9.106;2023-06-26T08:28:48;4.20;;;3.80;;
4486;SDS011;2256;48.740;9.106;2023-06-26T08:31:15;4.73;;;4.30;;
4486;SDS011;2256;48.740;9.106;2023-06-26T08:33:42;4.80;;;4.13;;
4486;SDS011;2256;48.740;9.106;2023-06-26T08:36:09;4.03;;;3.47;;
4486;SDS011;2256;48.740;9.106;2023-06-26T08:38:37;4.33;;;3.77;;
4486;SDS011;2256;48.740;9.106;2023-06-26T08:41:06;4.47;;;4.07;;
4486;SDS011;2256;48.740;9.106;2023-06-26T08:43:33;4.17;;;3.77;;
4486;SDS011;2256;48.740;9.106;2023-06-26T08:46:00;5.07;;;3.83;;
4486;SDS011;2256;48.740;9.106;2023-06-26T08:48:28;5.70;;;4.33;;
4486;SDS011;2256;48.740;9.106;2023-06-26T08:50:57;4.07;;;3.67;;
4486;SDS011;2256;48.740;9.106;2023-06-26T08:53:33;4.57;;;4.17;;
4486;SDS011;2256;48.740;9.106;2023-06-26T08:56:04;3.83;;;3.43;;
4486;SDS011;2256;48.740;9.106;2023-06-26T08:58:33;5.53;;;4.40;;
4486;SDS011;2256;48.740;9.106;2023-06-26T09:01:02;4.97;;;4.27;;
4486;SDS011;2256;48.740;9.106;2023-06-26T09:03:30;6.50;;;4.67;;
4486;SDS011;2256;48.740;9.106;2023-06-26T09:05:58;9.33;;;4.30;;
4486;SDS011;2256;48.740;9.106;2023-06-26T09:08:25;5.27;;;4.23;;
4486;SDS011;2256;48.740;9.106;2023-06-26T09:10:52;5.63;;;4.23;;
4486;SDS011;2256;48.740;9.106;2023-06-26T09:13:20;4.63;;;4.10;;
4486;SDS011;2256;48.740;9.106;2023-06-26T09:15:47;6.60;;;4.93;;
4486;SDS011;2256;48.740;9.106;2023-06-26T09:18:16;4.40;;;4.00;;
4486;SDS011;2256;48.740;9.106;2023-06-26T09:20:44;5.10;;;4.57;;
4486;SDS011;2256;48.740;9.106;2023-06-26T09:23:11;5.20;;;4.57;;
4486;SDS011;2256;48.740;9.106;2023-06-26T09:25:39;5.67;;;4.20;;
4486;SDS011;2256;48.740;9.106;2023-06-26T09:28:06;4.90;;;4.17;;
4486;SDS011;2256;48.740;9.106;2023-06-26T09:30:35;5.70;;;4.40;;
4486;SDS011;2256;48.740;9.106;2023-06-26T09:33:12;4.77;;;4.30;;
4486;SDS011;2256;48.740;9.106;2023-06-26T09:35:40;5.40;;;4.03;;
4486;SDS011;2256;48.740;9.106;2023-06-26T09:38:07;5.23;;;4.00;;
4486;SDS011;2256;48.740;9.106;2023-06-26T09:40:34;8.20;;;4.20;;
4486;SDS011;2256;48.740;9.106;2023-06-26T09:43:03;7.43;;;4.93;;
4486;SDS011;2256;48.740;9.106;2023-06-26T09:45:30;4.23;;;3.83;;
4486;SDS011;2256;48.740;9.106;2023-06-26T09:48:00;5.50;;;3.60;;
4486;SDS011;2256;48.740;9.106;2023-06-26T09:50:29;4.87;;;4.13;;
4486;SDS011;2256;48.740;9.106;2023-06-26T09:52:59;6.17;;;4.87;;
4486;SDS011;2256;48.740;9.106;2023-06-26T09:55:34;8.17;;;4.77;;
4486;SDS011;2256;48.740;9.106;2023-06-26T09:58:00;5.50;;;3.90;;
4486;SDS011;2256;48.740;9.106;2023-06-26T10:00:29;6.50;;;4.50;;
4486;SDS011;2256;48.740;9.106;2023-06-26T10:02:56;5.17;;;4.67;;
4486;SDS011;2256;48.740;9.106;2023-06-26T10:05:25;4.20;;;3.80;;
4486;SDS011;2256;48.740;9.106;2023-06-26T10:07:52;6.20;;;4.40;;
4486;SDS011;2256;48.740;9.106;2023-06-26T10:10:19;4.43;;;4.03;;
4486;SDS011;2256;48.740;9.106;2023-06-26T10:12:49;4.30;;;3.63;;
4486;SDS011;2256;48.740;9.106;2023-06-26T10:15:22;3.93;;;3.53;;
4486;SDS011;2256;48.740;9.106;2023-06-26T10:17:50;8.63;;;4.30;;
4486;SDS011;2256;48.740;9.106;2023-06-26T10:20:22;6.00;;;4.50;;
4486;SDS011;2256;48.740;9.106;2023-06-26T10:22:51;5.03;;;4.27;;
4486;SDS011;2256;48.740;9.106;2023-06-26T10:25:19;5.53;;;4.90;;
4486;SDS011;2256;48.740;9.106;2023-06-26T10:27:50;5.57;;;4.73;;
4486;SDS011;2256;48.740;9.106;2023-06-26T10:30:23;6.03;;;5.00;;
4486;SDS011;2256;48.740;9.106;2023-06-26T10:32:53;12.00;;;5.63;;
4486;SDS011;2256;48.740;9.106;2023-06-26T10:35:20;7.10;;;5.27;;
4486;SDS011;2256;48.740;9.106;2023-06-26T10:37:49;7.60;;;5.70;;
4486;SDS011;2256;48.740;9.106;2023-06-26T10:40:21;7.70;;;6.13;;
4486;SDS011;2256;48.740;9.106;2023-06-26T10:42:50;7.23;;;5.03;;
4486;SDS011;2256;48.740;9.106;2023-06-26T10:45:19;8.00;;;5.57;;
4486;SDS011;2256;48.740;9.106;2023-06-26T10:47:48;7.67;;;5.00;;
4486;SDS011;2256;48.740;9.106;2023-06-26T10:50:20;6.70;;;5.50;;
4486;SDS011;2256;48.740;9.106;2023-06-26T10:53:14;6.73;;;5.20;;
4486;SDS011;2256;48.740;9.106;2023-06-26T10:55:47;7.80;;;5.10;;
4486;SDS011;2256;48.740;9.106;2023-06-26T10:58:30;7.57;;;5.40;;
4486;SDS011;2256;48.740;9.106;2023-06-26T11:04:03;6.47;;;5.33;;
4486;SDS011;2256;48.740;9.106;2023-06-26T11:06:31;6.23;;;5.33;;
4486;SDS011;2256;48.740;9.106;2023-06-26T11:09:06;6.83;;;5.13;;
4486;SDS011;2256;48.740;9.106;2023-06-26T11:14:29;7.67;;;5.20;;
4486;SDS011;2256;48.740;9.106;2023-06-26T11:16:57;7.70;;;5.73;;
4486;SDS011;2256;48.740;9.106;2023-06-26T11:19:26;12.17;;;5.70;;
4486;SDS011;2256;48.740;9.106;2023-06-26T11:21:57;6.33;;;5.30;;
4486;SDS011;2256;48.740;9.106;2023-06-26T11:24:27;11.13;;;5.80;;
4486;SDS011;2256;48.740;9.106;2023-06-26T11:26:57;7.47;;;5.30;;
4486;SDS011;2256;48.740;9.106;2023-06-26T11:29:26;7.97;;;5.70;;
4486;SDS011;2256;48.740;9.106;2023-06-26T11:31:57;7.73;;;5.40;;
4486;SDS011;2256;48.740;9.106;2023-06-26T11:34:29;7.80;;;5.20;;
4486;SDS011;2256;48.740;9.106;2023-06-26T11:36:56;8.90;;;5.00;;
4486;SDS011;2256;48.740;9.106;2023-06-26T11:39:27;8.20;;;5.67;;
4486;SDS011;2256;48.740;9.106;2023-06-26T11:41:54;6.57;;;5.30;;
4486;SDS011;2256;48.740;9.106;2023-06-26T11:44:21;11.67;;;5.63;;
4486;SDS011;2256;48.740;9.106;2023-06-26T11:46:51;6.60;;;5.07;;
4486;SDS011;2256;48.740;9.106;2023-06-26T11:49:20;6.30;;;5.40;;
4486;SDS011;2256;48.740;9.106;2023-06-26T11:51:48;7.10;;;5.57;;
4486;SDS011;2256;48.740;9.106;2023-06-26T11:54:15;6.80;;;5.20;;
4486;SDS011;2256;48.740;9.106;2023-06-26T11:56:52;5.37;;;4.83;;
4486;SDS011;2256;48.740;9.106;2023-06-26T11:59:22;6.40;;;5.03;;
4486;SDS011;2256;48.740;9.106;2023-06-26T12:01:50;6.13;;;4.57;;
4486;SDS011;2256;48.740;9.106;2023-06-26T12:04:20;5.67;;;4.57;;
4486;SDS011;2256;48.740;9.106;2023-06-26T12:06:51;7.90;;;4.90;;
4486;SDS011;2256;48.740;9.106;2023-06-26T12:09:23;6.40;;;5.10;;
4486;SDS011;2256;48.740;9.106;2023-06-26T12:11:55;6.83;;;4.47;;
4486;SDS011;2256;48.740;9.106;2023-06-26T12:14:26;8.00;;;5.47;;
4486;SDS011;2256;48.740;9.106;2023-06-26T12:17:03;7.40;;;4.70;;
4486;SDS011;2256;48.740;9.106;2023-06-26T12:19:31;5.50;;;4.87;;
4486;SDS011;2256;48.740;9.106;2023-06-26T12:21:58;6.70;;;5.13;;
4486;SDS011;2256;48.740;9.106;2023-06-26T12:24:25;5.83;;;4.70;;
4486;SDS011;2256;48.740;9.106;2023-06-26T12:26:54;6.93;;;4.97;;
4486;SDS011;2256;48.740;9.106;2023-06-26T12:29:28;8.33;;;5.50;;
4486;SDS011;2256;48.740;9.106;2023-06-26T12:31:59;6.60;;;5.00;;
4486;SDS011;2256;48.740;9.106;2023-06-26T12:34:27;7.17;;;5.10;;
4486;SDS011;2256;48.740;9.106;2023-06-26T12:36:59;7.97;;;4.80;;
4486;SDS011;2256;48.740;9.106;2023-06-26T12:39:27;7.80;;;4.90;;
4486;SDS011;2256;48.740;9.106;2023-06-26T12:41:56;8.60;;;6.20;;
4486;SDS011;2256;48.740;9.106;2023-06-26T12:44:26;9.63;;;5.83;;
4486;SDS011;2256;48.740;9.106;2023-06-26T12:46:54;6.53;;;5.10;;
4486;SDS011;2256;48.740;9.106;2023-06-26T12:49:31;6.57;;;5.13;;
4486;SDS011;2256;48.740;9.106;2023-06-26T12:51:59;8.13;;;5.73;;
4486;SDS011;2256;48.740;9.106;2023-06-26T12:54:27;8.50;;;5.63;;
4486;SDS011;2256;48.740;9.106;2023-06-26T12:56:56;5.43;;;4.40;;
4486;SDS011;2256;48.740;9.106;2023-06-26T12:59:23;7.10;;;4.93;;
4486;SDS011;2256;48.740;9.106;2023-06-26T13:01:50;9.40;;;5.50;;
4486;SDS011;2256;48.740;9.106;2023-06-26T13:04:17;7.93;;;5.30;;
4486;SDS011;2256;48.740;9.106;2023-06-26T13:06:44;7.83;;;5.50;;
4486;SDS011;2256;48.740;9.106;2023-06-26T13:09:11;8.33;;;5.90;;
4486;SDS011;2256;48.740;9.106;2023-06-26T13:11:38;9.10;;;5.00;;
4486;SDS011;2256;48.740;9.106;2023-06-26T13:14:06;7.87;;;5.30;;
4486;SDS011;2256;48.740;9.106;2023-06-26T13:16:34;7.13;;;4.70;;
4486;SDS011;2256;48.740;9.106;2023-06-26T13:19:00;9.80;;;5.50;;
4486;SDS011;2256;48.740;9.106;2023-06-26T13:21:28;5.63;;;4.20;;
4486;SDS011;2256;48.740;9.106;2023-06-26T13:23:55;10.10;;;5.30;;
4486;SDS011;2256;48.740;9.106;2023-06-26T13:26:22;13.60;;;6.03;;
4486;SDS011;2256;48.740;9.106;2023-06-26T13:28:50;7.83;;;4.90;;
4486;SDS011;2256;48.740;9.106;2023-06-26T13:31:18;11.77;;;4.90;;
4486;SDS011;2256;48.740;9.106;2023-06-26T13:33:46;6.90;;;4.93;;
4486;SDS011;2256;48.740;9.106;2023-06-26T13:36:14;7.10;;;5.10;;
4486;SDS011;2256;48.740;9.106;2023-06-26T13:38:43;6.37;;;3.93;;
4486;SDS011;2256;48.740;9.106;2023-06-26T13:41:10;10.80;;;4.80;;
4486;SDS011;2256;48.740;9.106;2023-06-26T13:43:37;7.13;;;4.67;;
4486;SDS011;2256;48.740;9.106;2023-06-26T13:46:04;8.10;;;4.60;;
4486;SDS011;2256;48.740;9.106;2023-06-26T13:48:32;7.03;;;4.57;;
4486;SDS011;2256;48.740;9.106;2023-06-26T13:50:59;6.47;;;4.53;;
4486;SDS011;2256;48.740;9.106;2023-06-26T13:53:26;8.23;;;4.53;;
4486;SDS011;2256;48.740;9.106;2023-06-26T13:55:53;6.90;;;4.93;;
4486;SDS011;2256;48.740;9.106;2023-06-26T13:58:20;7.03;;;4.93;;
4486;SDS011;2256;48.740;9.106;2023-06-26T14:00:51;6.57;;;4.17;;
4486;SDS011;2256;48.740;9.106;2023-06-26T14:03:18;6.83;;;4.20;;
4486;SDS011;2256;48.740;9.106;2023-06-26T14:05:46;13.60;;;4.60;;
4486;SDS011;2256;48.740;9.106;2023-06-26T14:08:14;9.10;;;4.37;;
4486;SDS011;2256;48.740;9.106;2023-06-26T14:10:41;6.23;;;3.90;;
4486;SDS011;2256;48.740;9.106;2023-06-26T14:13:08;6.10;;;3.87;;
4486;SDS011;2256;48.740;9.106;2023-06-26T14:15:36;10.00;;;4.47;;
4486;SDS011;2256;48.740;9.106;2023-06-26T14:18:05;4.80;;;3.67;;
4486;SDS011;2256;48.740;9.106;2023-06-26T14:20:32;11.10;;;3.30;;
4486;SDS011;2256;48.740;9.106;2023-06-26T14:23:02;4.60;;;3.07;;
4486;SDS011;2256;48.740;9.106;2023-06-26T14:25:29;5.63;;;3.63;;
4486;SDS011;2256;48.740;9.106;2023-06-26T14:27:56;5.20;;;3.40;;
4486;SDS011;2256;48.740;9.106;2023-06-26T14:30:25;5.23;;;2.87;;
4486;SDS011;2256;48.740;9.106;2023-06-26T14:32:51;5.43;;;3.40;;
4486;SDS011;2256;48.740;9.106;2023-06-26T14:35:18;5.90;;;4.10;;
4486;SDS011;2256;48.740;9.106;2023-06-26T14:41:09;4.60;;;3.17;;
4486;SDS011;2256;48.740;9.106;2023-06-26T14:43:36;6.70;;;2.93;;
4486;SDS011;2256;48.740;9.106;2023-06-26T14:46:03;3.90;;;3.10;;
4486;SDS011;2256;48.740;9.106;2023-06-26T14:48:30;4.87;;;3.47;;
4486;SDS011;2256;48.740;9.106;2023-06-26T14:50:57;3.17;;;2.63;;
4486;SDS011;2256;48.740;9.106;2023-06-26T14:53:25;3.47;;;3.17;;
4486;SDS011;2256;48.740;9.106;2023-06-26T14:55:52;2.70;;;2.50;;
4486;SDS011;2256;48.740;9.106;2023-06-26T14:58:20;5.03;;;2.90;;
4486;SDS011;2256;48.740;9.106;2023-06-26T15:00:47;4.30;;;3.17;;
4486;SDS011;2256;48.740;9.106;2023-06-26T15:03:15;5.33;;;3.60;;
4486;SDS011;2256;48.740;9.106;2023-06-26T15:05:42;5.63;;;3.17;;
4486;SDS011;2256;48.740;9.106;2023-06-26T15:08:10;5.10;;;2.80;;
4486;SDS011;2256;48.740;9.106;2023-06-26T15:10:37;4.43;;;3.10;;
4486;SDS011;2256;48.740;9.106;2023-06-26T15:13:04;6.17;;;3.20;;
4486;SDS011;2256;48.740;9.106;2023-06-26T15:15:34;5.23;;;3.33;;
4486;SDS011;2256;48.740;9.106;2023-06-26T15:18:00;5.03;;;3.20;;
4486;SDS011;2256;48.740;9.106;2023-06-26T15:20:27;4.30;;;3.13;;
4486;SDS011;2256;48.740;9.106;2023-06-26T15:22:54;5.13;;;3.60;;
4486;SDS011;2256;48.740;9.106;2023-06-26T15:25:23;4.30;;;3.27;;
4486;SDS011;2256;48.740;9.106;2023-06-26T15:27:50;5.10;;;3.67;;
4486;SDS011;2256;48.740;9.106;2023-06-26T15:30:17;6.57;;;3.67;;
4486;SDS011;2256;48.740;9.106;2023-06-26T15:32:45;4.90;;;3.70;;
4486;SDS011;2256;48.740;9.106;2023-06-26T15:35:12;4.93;;;4.00;;
4486;SDS011;2256;48.740;9.106;2023-06-26T15:37:39;6.20;;;4.07;;
4486;SDS011;2256;48.740;9.106;2023-06-26T15:40:07;6.13;;;3.93;;
4486;SDS011;2256;48.740;9.106;2023-06-26T15:42:41;5.40;;;3.63;;
4486;SDS011;2256;48.740;9.106;2023-06-26T15:45:11;4.83;;;3.60;;
4486;SDS011;2256;48.740;9.106;2023-06-26T15:47:38;9.27;;;4.50;;